Time;durP1;ratioP1;P1;durP2;ratioP2;P2;SDS_P1;SDS_P2;PMS_P1;PMS_P2;Temp;Humidity;BMP_temperature;BMP_pressure;BME280_temperature;BME280_humidity;BME280_pressure;Samples;Min_cycle;Max_cycle;Signal;HPM_P1;HPM_P2
2023/10/10 00:01:42;;;;;;;20.60;14.90;;;16.80;94.80;;;;;;5073516;28;20476;-57
2023/10/10 00:04:10;;;;;;;16.97;15.23;;;16.80;94.90;;;;;;5073578;28;20448;-58
2023/10/10 00:06:38;;;;;;;16.23;13.53;;;16.80;94.80;;;;;;5073935;28;20455;-57
2023/10/10 00:09:10;;;;;;;17.30;15.60;;;16.70;94.70;;;;;;5073070;28;20455;-57
2023/10/10 00:11:41;;;;;;;17.53;14.90;;;16.70;94.70;;;;;;5073542;28;20434;-57
2023/10/10 00:14:15;;;;;;;14.57;13.17;;;16.70;94.80;;;;;;5073394;28;20436;-57
2023/10/10 00:16:42;;;;;;;17.43;13.80;;;16.70;95.00;;;;;;5073575;28;20504;-57
2023/10/10 00:19:17;;;;;;;16.33;14.17;;;16.60;94.90;;;;;;5072979;28;20448;-57
2023/10/10 00:21:44;;;;;;;17.20;14.63;;;16.60;95.00;;;;;;5073060;28;20491;-58
2023/10/10 00:24:14;;;;;;;15.00;13.40;;;16.60;95.00;;;;;;5073433;28;20456;-57
2023/10/10 00:26:42;;;;;;;21.90;14.80;;;16.60;95.00;;;;;;5073442;28;20536;-58
2023/10/10 00:29:09;;;;;;;18.17;15.53;;;16.60;95.00;;;;;;5072925;28;20817;-57
2023/10/10 00:31:43;;;;;;;17.83;14.87;;;16.60;95.10;;;;;;5073119;28;20445;-57
2023/10/10 00:34:10;;;;;;;16.50;14.80;;;16.60;95.20;;;;;;5073267;28;20435;-57
2023/10/10 00:36:37;;;;;;;17.13;14.37;;;16.60;95.40;;;;;;5073202;28;20514;-57
2023/10/10 00:39:20;;;;;;;21.60;15.97;;;16.60;95.50;;;;;;5073061;28;20437;-57
2023/10/10 00:41:52;;;;;;;19.90;15.87;;;16.60;95.50;;;;;;5072816;28;20947;-57
2023/10/10 00:44:19;;;;;;;23.30;15.40;;;16.60;95.50;;;;;;5072829;28;20911;-56
2023/10/10 00:46:47;;;;;;;18.40;14.43;;;16.60;95.50;;;;;;5073089;28;20445;-57
2023/10/10 00:49:16;;;;;;;18.40;15.77;;;16.60;95.60;;;;;;5073099;28;20451;-57
2023/10/10 00:51:46;;;;;;;19.10;15.23;;;16.60;95.70;;;;;;5073106;28;20492;-57
2023/10/10 00:54:26;;;;;;;20.50;16.20;;;16.50;95.70;;;;;;5073024;28;20445;-57
2023/10/10 00:56:55;;;;;;;18.83;15.47;;;16.50;95.80;;;;;;5073079;28;20499;-57
2023/10/10 00:59:27;;;;;;;18.30;14.73;;;16.50;95.80;;;;;;5072566;28;20966;-57
2023/10/10 01:01:54;;;;;;;21.23;15.03;;;16.50;95.80;;;;;;5073428;28;20461;-57
2023/10/10 01:04:35;;;;;;;22.03;17.37;;;16.50;95.80;;;;;;5072590;28;20965;-57
2023/10/10 01:07:03;;;;;;;19.97;14.93;;;16.50;95.70;;;;;;5073038;28;20436;-57
2023/10/10 01:09:34;;;;;;;22.67;15.73;;;16.50;95.80;;;;;;5072709;28;20487;-57
2023/10/10 01:12:04;;;;;;;19.60;15.57;;;16.40;95.80;;;;;;5072815;28;20440;-57
2023/10/10 01:14:31;;;;;;;25.13;15.63;;;16.40;95.80;;;;;;5072927;28;20429;-57
2023/10/10 01:16:59;;;;;;;23.00;17.80;;;16.40;95.90;;;;;;5072893;28;20452;-57
2023/10/10 01:19:28;;;;;;;24.80;16.80;;;16.40;95.90;;;;;;5072820;28;20453;-57
2023/10/10 01:21:58;;;;;;;22.17;17.40;;;16.40;96.00;;;;;;5072582;28;20457;-56
2023/10/10 01:24:25;;;;;;;17.73;15.63;;;16.40;96.00;;;;;;5073127;28;20793;-57
2023/10/10 01:26:52;;;;;;;20.47;15.87;;;16.40;95.90;;;;;;5072423;28;21012;-57
2023/10/10 01:29:25;;;;;;;19.97;16.60;;;16.40;95.90;;;;;;5072969;28;20441;-57
2023/10/10 01:31:52;;;;;;;22.07;17.90;;;16.40;95.90;;;;;;5075987;28;20523;-57
2023/10/10 01:34:31;;;;;;;17.73;14.67;;;16.40;96.10;;;;;;5076327;28;20441;-57
2023/10/10 01:37:07;;;;;;;21.77;15.63;;;16.40;96.10;;;;;;5076293;28;20425;-57
2023/10/10 01:39:47;;;;;;;17.80;14.87;;;16.40;96.10;;;;;;5076323;28;20471;-57
2023/10/10 01:42:16;;;;;;;17.27;14.60;;;16.40;96.10;;;;;;5076188;28;20556;-57
2023/10/10 01:44:43;;;;;;;19.57;15.77;;;16.30;96.00;;;;;;5075963;28;20822;-56
2023/10/10 01:47:25;;;;;;;20.97;14.73;;;16.30;96.00;;;;;;5076064;28;20441;-57
2023/10/10 01:49:52;;;;;;;21.20;15.13;;;16.30;96.00;;;;;;5075960;28;20496;-57
2023/10/10 01:52:21;;;;;;;17.60;13.93;;;16.30;95.90;;;;;;5075989;28;20444;-57
2023/10/10 01:54:53;;;;;;;18.40;15.50;;;16.30;96.10;;;;;;5076003;28;20445;-57
2023/10/10 01:57:22;;;;;;;22.90;15.63;;;16.30;96.10;;;;;;5075979;28;20426;-57
2023/10/10 01:59:49;;;;;;;19.40;16.20;;;16.30;96.00;;;;;;5075711;28;20461;-57
2023/10/10 02:02:17;;;;;;;17.67;14.20;;;16.30;96.00;;;;;;5075779;28;20437;-57
2023/10/10 02:04:45;;;;;;;16.90;14.80;;;16.20;95.90;;;;;;5075732;28;20445;-57
2023/10/10 02:07:22;;;;;;;16.00;14.00;;;16.20;96.00;;;;;;5076175;28;20447;-57
2023/10/10 02:10:00;;;;;;;18.00;15.87;;;16.20;96.00;;;;;;5075176;28;20504;-57
2023/10/10 02:12:26;;;;;;;20.30;14.10;;;16.20;96.00;;;;;;5075691;28;20460;-57
2023/10/10 02:14:54;;;;;;;19.90;15.43;;;16.20;96.00;;;;;;5075492;28;20436;-57
2023/10/10 02:17:23;;;;;;;23.90;15.43;;;16.20;96.00;;;;;;5075521;28;20803;-57
2023/10/10 02:19:59;;;;;;;18.47;15.90;;;16.20;96.00;;;;;;5075365;28;20561;-57
2023/10/10 02:22:47;;;;;;;18.70;14.57;;;16.20;96.00;;;;;;5075328;28;20547;-56
2023/10/10 02:25:39;;;;;;;17.13;14.70;;;16.20;96.00;;;;;;5075345;28;20451;-57
2023/10/10 02:28:10;;;;;;;19.37;14.80;;;16.10;96.00;;;;;;5075075;28;20429;-57
2023/10/10 02:30:37;;;;;;;19.43;15.57;;;16.10;96.10;;;;;;5075190;28;20468;-57
2023/10/10 02:33:14;;;;;;;18.37;16.43;;;16.10;96.10;;;;;;5074748;28;21015;-57
2023/10/10 02:35:54;;;;;;;16.60;14.50;;;16.10;96.10;;;;;;5074931;28;20460;-56
2023/10/10 02:38:23;;;;;;;16.97;15.17;;;16.10;96.10;;;;;;5074841;28;20425;-57
2023/10/10 02:40:55;;;;;;;19.23;14.90;;;16.10;96.10;;;;;;5074519;28;20472;-57
2023/10/10 02:43:45;;;;;;;16.67;14.43;;;16.10;96.10;;;;;;5074535;28;21035;-57
2023/10/10 02:46:17;;;;;;;16.50;14.67;;;16.10;96.10;;;;;;5074954;28;20424;-57
2023/10/10 02:48:43;;;;;;;22.20;15.50;;;16.10;96.20;;;;;;5074924;28;20432;-57
2023/10/10 02:51:15;;;;;;;16.00;13.20;;;16.00;96.10;;;;;;5074693;28;20476;-57
2023/10/10 02:53:46;;;;;;;19.83;15.40;;;16.00;96.00;;;;;;5074765;28;20483;-57
2023/10/10 02:56:18;;;;;;;17.80;14.80;;;16.00;96.00;;;;;;5074454;28;20951;-57
2023/10/10 02:58:45;;;;;;;21.00;15.40;;;16.00;96.10;;;;;;5074641;28;20424;-57
2023/10/10 03:01:46;;;;;;;18.77;15.27;;;16.00;96.10;;;;;;5074665;28;20461;-56
2023/10/10 03:03:59;;;;;;;18.37;15.00;;;16.00;96.10;;;;;;5074009;28;20824;-57
2023/10/10 03:06:29;;;;;;;16.63;14.03;;;16.00;96.10;;;;;;5074510;28;20452;-56
2023/10/10 03:09:12;;;;;;;19.83;14.77;;;15.90;96.10;;;;;;5074202;28;20522;-56
2023/10/10 03:11:53;;;;;;;19.77;15.20;;;15.90;96.10;;;;;;5074509;28;20516;-57
2023/10/10 03:14:26;;;;;;;16.30;14.60;;;15.90;96.10;;;;;;5074282;28;20425;-57
2023/10/10 03:17:03;;;;;;;16.73;15.00;;;15.90;96.10;;;;;;5074326;28;20440;-57
2023/10/10 03:19:37;;;;;;;18.07;14.43;;;15.80;96.10;;;;;;5073919;28;20466;-57
2023/10/10 03:22:29;;;;;;;17.37;14.37;;;15.80;96.10;;;;;;5073860;28;20913;-57
2023/10/10 03:25:08;;;;;;;19.30;13.87;;;15.80;96.10;;;;;;5073872;28;20436;-57
2023/10/10 03:27:54;;;;;;;20.30;14.00;;;15.90;96.10;;;;;;5074154;28;20425;-57
2023/10/10 03:30:31;;;;;;;18.20;15.47;;;15.90;96.10;;;;;;5074811;28;20834;-57
2023/10/10 03:33:08;;;;;;;14.90;13.40;;;15.80;96.10;;;;;;5074090;28;20509;-57
2023/10/10 03:35:52;;;;;;;19.53;14.27;;;15.80;96.00;;;;;;5073974;28;20432;-57
2023/10/10 03:41:25;;;;;;;16.27;14.10;;;15.70;96.00;;;;;;5050784;28;20941;-56
2023/10/10 05:25:41;;;;;;;17.93;14.00;;;15.50;98.60;;;;;;5063740;28;20514;-57
2023/10/10 05:28:09;;;;;;;19.07;13.23;;;15.40;98.70;;;;;;5076510;28;20822;-57
2023/10/10 05:30:42;;;;;;;16.57;12.60;;;15.40;98.70;;;;;;5076287;28;20460;-57
2023/10/10 05:33:09;;;;;;;17.30;12.50;;;15.50;98.80;;;;;;5075945;28;20429;-57
2023/10/10 05:35:37;;;;;;;18.17;12.70;;;15.50;98.80;;;;;;5076049;28;20475;-56
2023/10/10 05:38:08;;;;;;;22.17;12.80;;;15.40;98.80;;;;;;5076180;28;20472;-56
2023/10/10 05:40:38;;;;;;;24.57;13.27;;;15.40;98.80;;;;;;5075949;28;20551;-56
2023/10/10 05:43:09;;;;;;;18.73;12.83;;;15.50;98.90;;;;;;5076002;28;20484;-56
2023/10/10 05:45:36;;;;;;;15.00;12.37;;;15.40;98.80;;;;;;5076171;28;20433;-56
2023/10/10 05:48:04;;;;;;;16.80;12.77;;;15.40;98.80;;;;;;5076075;28;20441;-56
2023/10/10 05:50:32;;;;;;;15.97;12.20;;;15.50;98.90;;;;;;5076079;28;20494;-56
2023/10/10 05:53:00;;;;;;;16.47;11.37;;;15.40;98.80;;;;;;5075936;28;20452;-56
2023/10/10 05:55:28;;;;;;;14.97;11.50;;;15.50;98.90;;;;;;5075657;28;20961;-56
2023/10/10 05:57:57;;;;;;;18.10;12.07;;;15.50;98.90;;;;;;5075915;28;20452;-56
2023/10/10 06:00:26;;;;;;;16.33;12.13;;;15.50;98.80;;;;;;5075442;28;20986;-56
2023/10/10 06:02:53;;;;;;;11.77;9.77;;;15.50;98.70;;;;;;5075682;28;20504;-56
2023/10/10 06:05:20;;;;;;;15.33;12.47;;;15.50;98.60;;;;;;5075723;28;20447;-56
2023/10/10 06:07:49;;;;;;;20.20;11.10;;;15.50;98.60;;;;;;5075350;28;20445;-56
2023/10/10 06:10:16;;;;;;;17.43;11.63;;;15.50;98.40;;;;;;5075250;28;20481;-56
2023/10/10 06:12:45;;;;;;;18.07;12.40;;;15.60;98.50;;;;;;5075690;28;20448;-57
2023/10/10 06:15:12;;;;;;;13.70;11.37;;;15.60;98.60;;;;;;5074422;28;21006;-56
2023/10/10 06:17:39;;;;;;;23.07;11.20;;;15.60;98.70;;;;;;5075556;28;20455;-56
2023/10/10 06:20:08;;;;;;;13.30;10.40;;;15.60;98.80;;;;;;5075872;28;20559;-56
2023/10/10 06:22:36;;;;;;;17.87;11.90;;;15.60;98.80;;;;;;5075380;28;20437;-56
2023/10/10 06:25:05;;;;;;;18.80;12.33;;;15.60;98.90;;;;;;5075017;28;21045;-56
2023/10/10 06:27:36;;;;;;;15.57;11.43;;;15.70;98.90;;;;;;5075424;28;20452;-56
2023/10/10 06:30:05;;;;;;;18.00;11.40;;;15.70;98.90;;;;;;5075280;28;20894;-55
2023/10/10 06:32:32;;;;;;;17.53;11.37;;;15.80;98.70;;;;;;5075109;28;20444;-56
2023/10/10 06:35:25;;;;;;;15.60;11.80;;;15.80;98.70;;;;;;5075326;28;20440;-56
2023/10/10 06:37:52;;;;;;;17.60;11.00;;;15.80;98.60;;;;;;5074965;28;20899;-56
2023/10/10 06:40:25;;;;;;;15.57;11.00;;;15.80;98.50;;;;;;5074598;28;20461;-56
2023/10/10 06:42:55;;;;;;;15.73;10.70;;;15.80;98.60;;;;;;5075021;28;20440;-56
2023/10/10 06:45:24;;;;;;;21.20;11.80;;;15.80;98.60;;;;;;5074784;28;20879;-56
2023/10/10 06:47:52;;;;;;;13.50;9.30;;;15.80;98.70;;;;;;5074917;28;20800;-56
2023/10/10 06:50:21;;;;;;;15.00;10.70;;;15.70;98.60;;;;;;5074839;28;20526;-56
2023/10/10 06:52:52;;;;;;;17.77;11.27;;;15.80;98.70;;;;;;5074743;28;20449;-56
2023/10/10 06:55:22;;;;;;;18.03;10.10;;;15.80;98.70;;;;;;5074792;28;20544;-56
2023/10/10 06:57:57;;;;;;;17.40;11.00;;;15.90;98.70;;;;;;5074422;28;20448;-56
2023/10/10 07:00:32;;;;;;;20.87;11.67;;;15.90;98.70;;;;;;5074547;28;20551;-56
2023/10/10 07:02:59;;;;;;;16.63;11.03;;;16.00;99.10;;;;;;5074609;28;20431;-56
2023/10/10 07:05:33;;;;;;;15.20;10.93;;;16.10;98.60;;;;;;5074091;28;20861;-56
2023/10/10 07:08:01;;;;;;;14.90;10.90;;;16.20;98.60;;;;;;5074220;28;20421;-56
2023/10/10 07:10:34;;;;;;;15.87;9.87;;;16.20;98.50;;;;;;5073915;28;20482;-56
2023/10/10 07:13:00;;;;;;;11.17;9.07;;;16.30;98.50;;;;;;5074153;28;20910;-56
2023/10/10 07:15:34;;;;;;;12.67;9.70;;;16.40;98.90;;;;;;5074324;28;20448;-56
2023/10/10 07:18:09;;;;;;;12.70;9.63;;;16.40;98.50;;;;;;5074318;28;20469;-56
2023/10/10 07:23:21;;;;;;;13.60;9.20;;;16.60;98.30;;;;;;5073978;28;20542;-56
2023/10/10 07:25:59;;;;;;;19.63;10.70;;;16.60;97.80;;;;;;5074145;28;20819;-56
2023/10/10 07:28:26;;;;;;;12.43;10.03;;;16.70;97.50;;;;;;5073189;28;20429;-56
2023/10/10 07:30:55;;;;;;;11.70;9.00;;;16.70;97.40;;;;;;5073909;28;20461;-55
2023/10/10 07:33:23;;;;;;;15.87;9.40;;;16.80;97.40;;;;;;5073695;28;21014;-56
2023/10/10 07:35:53;;;;;;;12.50;10.03;;;16.80;97.20;;;;;;5074016;28;20449;-57
2023/10/10 07:38:23;;;;;;;15.73;10.93;;;16.80;97.00;;;;;;5073824;28;20957;-57
2023/10/10 07:40:51;;;;;;;15.23;9.23;;;16.90;97.00;;;;;;5073911;28;20469;-56
2023/10/10 07:43:18;;;;;;;13.53;9.10;;;17.00;97.00;;;;;;5073820;28;20463;-56
2023/10/10 07:45:45;;;;;;;12.40;8.40;;;17.00;96.90;;;;;;5073612;28;20935;-56
2023/10/10 07:51:06;;;;;;;10.93;8.73;;;17.20;96.90;;;;;;5073833;28;20435;-56
2023/10/10 07:53:42;;;;;;;12.27;9.50;;;17.40;96.80;;;;;;5073467;28;20899;-56
2023/10/10 07:56:08;;;;;;;14.40;9.37;;;17.50;96.60;;;;;;5073783;28;20434;-56
2023/10/10 07:58:43;;;;;;;11.40;8.70;;;17.50;96.40;;;;;;5073685;28;20528;-56
2023/10/10 08:01:16;;;;;;;12.00;8.13;;;17.60;96.30;;;;;;5073883;28;20490;-56
2023/10/10 08:03:47;;;;;;;10.40;7.30;;;17.70;96.10;;;;;;5073662;28;20421;-56
2023/10/10 08:06:21;;;;;;;11.30;8.87;;;17.80;95.90;;;;;;5073517;28;20800;-56
2023/10/10 08:08:56;;;;;;;9.77;7.80;;;17.90;95.50;;;;;;5073602;28;20460;-56
2023/10/10 08:11:35;;;;;;;11.47;8.63;;;17.90;95.20;;;;;;5073351;28;20475;-56
2023/10/10 08:14:06;;;;;;;9.27;7.77;;;18.00;95.10;;;;;;5073404;28;20470;-56
2023/10/10 08:16:34;;;;;;;11.93;7.90;;;18.10;94.90;;;;;;5073465;28;20467;-56
2023/10/10 08:19:05;;;;;;;11.77;8.30;;;18.20;94.80;;;;;;5073110;28;20957;-56
2023/10/10 08:21:37;;;;;;;10.73;7.83;;;18.30;94.50;;;;;;5073263;28;20468;-56
2023/10/10 08:24:06;;;;;;;10.60;7.83;;;18.50;94.20;;;;;;5073188;28;20469;-56
2023/10/10 08:26:39;;;;;;;9.50;7.67;;;18.60;93.90;;;;;;5073273;28;20441;-56
2023/10/10 08:29:06;;;;;;;12.53;7.47;;;18.60;93.60;;;;;;5073255;28;20464;-56
2023/10/10 08:31:36;;;;;;;11.70;8.53;;;18.70;93.40;;;;;;5073112;28;20465;-56
2023/10/10 08:34:05;;;;;;;9.43;7.00;;;18.70;93.10;;;;;;5073088;28;20444;-55
2023/10/10 08:36:32;;;;;;;13.77;8.40;;;18.80;93.10;;;;;;5072904;28;20962;-57
2023/10/10 08:39:12;;;;;;;11.53;8.07;;;18.90;93.20;;;;;;5074598;28;20493;-57
2023/10/10 08:41:41;;;;;;;11.43;6.63;;;18.90;93.00;;;;;;5077314;28;20432;-56
2023/10/10 08:44:10;;;;;;;11.20;7.47;;;19.10;92.80;;;;;;5077065;28;20484;-56
2023/10/10 08:46:46;;;;;;;10.10;7.57;;;19.10;92.60;;;;;;5077202;28;20456;-56
2023/10/10 08:49:15;;;;;;;11.73;7.60;;;19.30;92.20;;;;;;5077116;28;20432;-57
2023/10/10 08:51:43;;;;;;;10.07;6.07;;;19.40;92.30;;;;;;5076739;28;20989;-56
2023/10/10 08:54:11;;;;;;;12.20;5.70;;;19.60;92.40;;;;;;5077119;28;20440;-57
2023/10/10 08:56:39;;;;;;;10.73;7.43;;;19.80;92.40;;;;;;5076717;28;20803;-57
2023/10/10 08:59:08;;;;;;;8.37;6.57;;;19.90;91.50;;;;;;5077079;28;20820;-57
2023/10/10 09:01:35;;;;;;;9.87;6.57;;;20.10;91.00;;;;;;5076860;28;20490;-57
2023/10/10 09:04:04;;;;;;;9.43;6.40;;;20.20;90.50;;;;;;5076851;28;20454;-57
2023/10/10 09:06:43;;;;;;;10.43;5.87;;;20.30;90.70;;;;;;5076897;28;20444;-57
2023/10/10 09:09:33;;;;;;;10.43;6.17;;;20.50;90.20;;;;;;5076678;28;20487;-57
2023/10/10 09:11:58;;;;;;;8.03;5.30;;;20.60;89.40;;;;;;5076344;28;21005;-57
2023/10/10 09:14:40;;;;;;;20.80;6.40;;;20.70;88.70;;;;;;5076581;28;20862;-57
2023/10/10 09:17:08;;;;;;;9.97;5.80;;;20.80;88.00;;;;;;5076612;28;20448;-57
2023/10/10 09:19:39;;;;;;;8.50;5.80;;;20.90;86.70;;;;;;5076460;28;20818;-57
2023/10/10 09:22:12;;;;;;;10.57;6.00;;;21.00;86.80;;;;;;5076286;28;20952;-57
2023/10/10 09:24:41;;;;;;;9.97;6.63;;;21.10;87.20;;;;;;5076386;28;20499;-57
2023/10/10 09:27:21;;;;;;;9.37;5.60;;;21.20;86.90;;;;;;5076283;28;20444;-57
2023/10/10 09:29:54;;;;;;;11.47;5.87;;;21.40;86.30;;;;;;5076446;28;20460;-57
2023/10/10 09:32:27;;;;;;;10.07;5.80;;;21.60;86.10;;;;;;5076162;28;20983;-58
2023/10/10 09:34:57;;;;;;;6.53;5.53;;;21.70;82.50;;;;;;5075976;28;20431;-57
2023/10/10 09:37:35;;;;;;;10.73;5.27;;;21.80;80.40;;;;;;5076026;28;20445;-57
2023/10/10 09:40:06;;;;;;;9.73;5.63;;;21.90;79.20;;;;;;5075878;28;20463;-57
2023/10/10 09:42:53;;;;;;;7.20;5.23;;;22.00;79.30;;;;;;5076086;28;20503;-57
2023/10/10 09:45:51;;;;;;;14.07;5.23;;;22.10;76.90;;;;;;5076027;28;20488;-57
2023/10/10 09:48:28;;;;;;;9.53;5.10;;;22.20;76.50;;;;;;5075819;28;20980;-57
2023/10/10 09:51:08;;;;;;;12.70;5.57;;;22.30;75.70;;;;;;5074877;28;20460;-57
2023/10/10 09:53:37;;;;;;;11.53;4.70;;;22.40;75.80;;;;;;5075979;28;20424;-58
2023/10/10 09:56:08;;;;;;;7.33;4.97;;;22.50;75.10;;;;;;5075624;28;20443;-57
2023/10/10 09:58:41;;;;;;;12.63;5.77;;;22.60;75.30;;;;;;5075907;28;20482;-58
2023/10/10 10:01:16;;;;;;;10.57;5.03;;;22.70;73.70;;;;;;5075785;28;20901;-57
2023/10/10 10:03:55;;;;;;;9.23;5.23;;;22.90;73.10;;;;;;5075551;28;20420;-57
2023/10/10 10:06:51;;;;;;;9.33;5.73;;;23.00;69.90;;;;;;5075717;28;20468;-58
2023/10/10 10:10:09;;;;;;;9.30;5.27;;;23.10;70.70;;;;;;5075267;28;20514;-57
2023/10/10 10:12:59;;;;;;;9.67;5.30;;;23.40;70.00;;;;;;5075613;28;20479;-57
2023/10/10 10:15:48;;;;;;;7.80;4.60;;;23.60;67.50;;;;;;5075573;28;20498;-57
2023/10/10 10:18:26;;;;;;;8.27;5.20;;;23.80;67.10;;;;;;5075583;28;20479;-58
2023/10/10 10:21:06;;;;;;;9.20;5.87;;;23.90;65.50;;;;;;5075430;28;20464;-58
2023/10/10 10:23:33;;;;;;;13.67;6.00;;;24.20;66.40;;;;;;5075426;28;20429;-57
2023/10/10 10:26:08;;;;;;;8.07;5.43;;;24.60;62.90;;;;;;5075244;28;20491;-58
2023/10/10 10:28:36;;;;;;;13.63;4.83;;;25.00;61.90;;;;;;5075383;28;20545;-58
2023/10/10 10:31:06;;;;;;;9.37;4.83;;;25.30;59.90;;;;;;5075212;28;20464;-57
2023/10/10 10:33:35;;;;;;;10.90;4.67;;;25.70;58.00;;;;;;5075173;28;20447;-58
2023/10/10 10:36:14;;;;;;;12.30;6.50;;;26.00;57.90;;;;;;5075157;28;20443;-58
2023/10/10 10:39:17;;;;;;;8.33;4.70;;;26.40;56.30;;;;;;5075127;28;20447;-58
2023/10/10 10:41:42;;;;;;;9.67;5.23;;;26.70;55.50;;;;;;5074497;28;20468;-57
2023/10/10 10:44:27;;;;;;;8.67;5.30;;;27.10;54.70;;;;;;5074936;28;20431;-58
2023/10/10 10:46:56;;;;;;;10.07;5.07;;;27.50;53.30;;;;;;5075021;28;20417;-58
2023/10/10 10:49:28;;;;;;;9.67;5.60;;;27.90;51.90;;;;;;5074913;28;20444;-58
2023/10/10 10:52:14;;;;;;;9.93;4.83;;;28.20;51.50;;;;;;5074907;28;20425;-57
2023/10/10 10:54:45;;;;;;;6.30;5.23;;;28.60;50.00;;;;;;5074624;28;20894;-58
2023/10/10 10:57:27;;;;;;;8.97;5.20;;;29.00;48.00;;;;;;5074857;28;20460;-58
2023/10/10 10:59:55;;;;;;;7.70;4.90;;;29.20;46.80;;;;;;5074634;28;20525;-58
2023/10/10 11:02:30;;;;;;;10.33;5.37;;;29.40;45.20;;;;;;5074445;28;20448;-57
2023/10/10 11:04:56;;;;;;;9.10;5.47;;;29.60;45.20;;;;;;5074279;28;20977;-58
2023/10/10 11:07:40;;;;;;;7.03;5.47;;;29.80;43.50;;;;;;5074207;28;20949;-58
2023/10/10 11:10:08;;;;;;;6.70;4.60;;;30.00;43.60;;;;;;5074067;28;20506;-58
2023/10/10 11:12:40;;;;;;;9.00;6.17;;;30.30;42.70;;;;;;5074528;28;20551;-55
2023/10/10 11:15:10;;;;;;;6.93;5.50;;;30.60;41.70;;;;;;5074022;28;20921;-55
2023/10/10 11:17:42;;;;;;;13.40;5.00;;;30.80;40.40;;;;;;5074416;28;20435;-55
2023/10/10 11:20:37;;;;;;;6.60;5.10;;;30.90;39.80;;;;;;5074323;28;20831;-56
2023/10/10 11:23:12;;;;;;;9.93;5.43;;;31.00;39.00;;;;;;5073948;28;20936;-57
2023/10/10 11:26:00;;;;;;;11.00;5.50;;;31.20;39.80;;;;;;5074207;28;20525;-55
2023/10/10 11:28:45;;;;;;;9.90;4.40;;;31.40;38.10;;;;;;5073871;28;20983;-55
2023/10/10 11:31:12;;;;;;;9.77;5.17;;;31.60;36.30;;;;;;5074142;28;20464;-55
2023/10/10 11:33:55;;;;;;;6.80;5.50;;;31.30;36.70;;;;;;5073744;28;20450;-56
2023/10/10 11:36:29;;;;;;;12.57;5.87;;;31.50;37.80;;;;;;5074031;28;20446;-55
2023/10/10 11:39:14;;;;;;;9.00;6.10;;;32.10;36.40;;;;;;5073651;28;20916;-56
2023/10/10 11:41:41;;;;;;;7.67;5.23;;;32.50;35.40;;;;;;5074061;28;20455;-56
2023/10/10 11:44:09;;;;;;;7.23;5.90;;;32.70;34.20;;;;;;5073553;28;20977;-56
2023/10/10 11:46:38;;;;;;;7.70;6.07;;;32.90;33.20;;;;;;5073475;28;20487;-56
2023/10/10 11:49:05;;;;;;;12.10;6.00;;;33.20;33.20;;;;;;5073431;28;20529;-56
2023/10/10 11:51:35;;;;;;;7.20;5.40;;;33.40;31.70;;;;;;5073340;28;20985;-56
2023/10/10 11:54:02;;;;;;;8.10;6.00;;;33.80;32.00;;;;;;5073417;28;21000;-56
2023/10/10 11:56:31;;;;;;;7.63;5.27;;;33.80;31.60;;;;;;5073707;28;20440;-56
2023/10/10 11:59:01;;;;;;;7.70;5.97;;;34.10;32.00;;;;;;5073766;28;20853;-56
2023/10/10 12:04:30;;;;;;;6.77;5.37;;;34.60;29.80;;;;;;5073567;28;20285;-56
2023/10/10 12:06:59;;;;;;;8.17;6.20;;;34.90;30.30;;;;;;5073617;28;20280;-56
2023/10/10 12:09:26;;;;;;;11.50;6.10;;;35.30;29.20;;;;;;5073047;28;20698;-56
2023/10/10 12:11:58;;;;;;;7.50;5.67;;;35.00;29.40;;;;;;5073496;28;20443;-56
2023/10/10 12:14:29;;;;;;;7.30;5.50;;;34.60;29.50;;;;;;5072796;28;20186;-57
2023/10/10 12:16:58;;;;;;;7.70;6.20;;;34.00;30.90;;;;;;5073493;28;20181;-57
2023/10/10 12:19:36;;;;;;;8.33;5.63;;;33.20;31.70;;;;;;5073336;28;20450;-56
2023/10/10 12:22:07;;;;;;;9.23;5.87;;;33.00;33.70;;;;;;5073097;28;20973;-56
2023/10/10 12:24:34;;;;;;;7.90;4.67;;;33.10;33.90;;;;;;5074149;28;20447;-56
2023/10/10 12:27:01;;;;;;;9.40;5.97;;;33.20;33.90;;;;;;5073312;28;20480;-56
2023/10/10 12:29:30;;;;;;;11.47;5.37;;;33.70;32.40;;;;;;5072877;28;20946;-57
2023/10/10 12:31:58;;;;;;;8.00;5.33;;;34.40;30.90;;;;;;5072919;28;20933;-56
2023/10/10 12:34:24;;;;;;;8.90;5.63;;;35.00;30.00;;;;;;5073260;28;20202;-56
2023/10/10 12:36:59;;;;;;;8.90;5.40;;;35.50;29.20;;;;;;5072943;28;20698;-56
2023/10/10 12:39:29;;;;;;;9.55;5.35;;;36.00;28.50;;;;;;5073172;28;20192;-56
2023/10/10 12:41:55;;;;;;;8.98;5.80;;;36.30;27.30;;;;;;5073257;28;20615;-56
2023/10/10 12:44:23;;;;;;;7.85;5.95;;;36.30;26.50;;;;;;5073073;28;20205;-56
2023/10/10 12:46:54;;;;;;;12.80;7.10;;;36.30;26.70;;;;;;5073058;28;20243;-57
2023/10/10 12:49:28;;;;;;;13.38;5.63;;;36.30;26.80;;;;;;5072833;28;20186;-57
2023/10/10 12:52:01;;;;;;;9.32;6.07;;;36.40;27.70;;;;;;5073188;28;20280;-57
2023/10/10 12:54:34;;;;;;;7.80;6.30;;;36.60;26.50;;;;;;5073129;28;20197;-57
2023/10/10 12:57:05;;;;;;;6.82;5.35;;;36.80;26.30;;;;;;5073176;28;20193;-57
2023/10/10 12:59:33;;;;;;;11.18;6.15;;;37.00;26.10;;;;;;5072647;28;20786;-57
2023/10/10 13:02:03;;;;;;;7.40;5.35;;;37.30;25.60;;;;;;5073023;28;20198;-57
2023/10/10 13:04:32;;;;;;;11.52;5.60;;;37.30;25.20;;;;;;5073088;28;20194;-57
2023/10/10 13:07:03;;;;;;;11.68;5.68;;;37.50;26.20;;;;;;5072977;28;20228;-57
2023/10/10 13:09:30;;;;;;;6.80;5.30;;;37.90;25.80;;;;;;5072376;28;20675;-57
2023/10/10 13:11:57;;;;;;;7.70;5.72;;;38.10;25.10;;;;;;5072856;28;20285;-57
2023/10/10 13:14:29;;;;;;;6.53;5.35;;;38.40;25.30;;;;;;5072808;28;20205;-56
2023/10/10 13:17:13;;;;;;;7.32;5.35;;;38.50;24.20;;;;;;5072902;28;20179;-57
2023/10/10 13:19:42;;;;;;;11.57;5.70;;;38.50;23.90;;;;;;5072805;28;20225;-57
2023/10/10 13:22:20;;;;;;;9.95;6.18;;;38.40;24.00;;;;;;5072802;28;20209;-57
2023/10/10 13:24:47;;;;;;;8.23;5.90;;;38.30;23.70;;;;;;5073732;28;20239;-57
2023/10/10 13:27:14;;;;;;;13.07;6.43;;;38.20;24.20;;;;;;5076453;28;20565;-57
2023/10/10 13:29:40;;;;;;;10.38;5.95;;;38.10;23.50;;;;;;5076396;28;20232;-57
2023/10/10 13:32:07;;;;;;;9.10;6.07;;;37.80;23.80;;;;;;5076312;28;20205;-56
2023/10/10 13:34:37;;;;;;;7.18;5.90;;;37.70;24.40;;;;;;5076429;28;20209;-57
2023/10/10 13:37:07;;;;;;;8.82;6.18;;;37.70;25.40;;;;;;5076338;28;20198;-57
2023/10/10 13:39:43;;;;;;;6.43;5.70;;;37.80;25.80;;;;;;5076236;28;20218;-57
2023/10/10 13:42:10;;;;;;;7.93;6.50;;;37.90;25.70;;;;;;5076250;28;20189;-57
2023/10/10 13:44:37;;;;;;;7.63;6.40;;;38.10;24.30;;;;;;5076091;28;20205;-57
2023/10/10 13:47:04;;;;;;;6.45;5.70;;;37.80;24.40;;;;;;5075773;28;20224;-57
2023/10/10 13:49:31;;;;;;;9.13;6.30;;;37.50;23.40;;;;;;5076029;28;20226;-57
2023/10/10 13:51:59;;;;;;;12.70;6.47;;;37.30;24.60;;;;;;5075993;28;20205;-57
2023/10/10 13:54:28;;;;;;;10.05;5.88;;;37.20;25.40;;;;;;5076570;28;20212;-57
2023/10/10 13:56:54;;;;;;;10.52;6.38;;;37.10;25.20;;;;;;5076996;28;20228;-57
2023/10/10 13:59:21;;;;;;;9.40;6.03;;;37.10;25.40;;;;;;5076697;28;20202;-57
2023/10/10 14:01:48;;;;;;;6.88;5.50;;;36.80;25.00;;;;;;5076164;28;20288;-56
2023/10/10 14:04:23;;;;;;;6.70;5.88;;;36.80;25.70;;;;;;5075967;28;20205;-57
2023/10/10 14:06:50;;;;;;;9.23;5.72;;;36.70;26.10;;;;;;5075777;28;20259;-57
2023/10/10 14:09:22;;;;;;;6.93;5.97;;;36.60;26.30;;;;;;5075723;28;20291;-57
2023/10/10 14:11:51;;;;;;;7.68;5.95;;;36.60;27.00;;;;;;5075778;28;20677;-57
2023/10/10 14:14:19;;;;;;;9.02;6.07;;;36.70;27.70;;;;;;5075267;28;20596;-56
2023/10/10 14:16:45;;;;;;;8.05;5.38;;;36.90;27.40;;;;;;5075577;28;20209;-57
2023/10/10 14:19:12;;;;;;;8.13;5.60;;;36.40;25.50;;;;;;5075515;28;20202;-57
2023/10/10 14:21:39;;;;;;;5.88;5.20;;;36.10;26.80;;;;;;5075490;28;20202;-57
2023/10/10 14:24:08;;;;;;;10.55;5.57;;;35.80;27.50;;;;;;5075472;28;20683;-56
2023/10/10 14:26:35;;;;;;;9.23;5.17;;;35.80;27.70;;;;;;5075317;28;20218;-56
2023/10/10 14:29:05;;;;;;;6.27;5.33;;;35.90;27.90;;;;;;5075390;28;20206;-57
2023/10/10 14:31:34;;;;;;;8.47;5.50;;;35.80;28.30;;;;;;5076375;28;20629;-57
2023/10/10 14:34:02;;;;;;;8.63;5.40;;;35.90;28.40;;;;;;5074415;28;20702;-56
2023/10/10 14:36:29;;;;;;;8.30;4.95;;;35.80;27.80;;;;;;5074607;28;20208;-57
2023/10/10 14:38:57;;;;;;;7.20;4.80;;;35.70;28.10;;;;;;5075246;28;20201;-56
2023/10/10 14:41:30;;;;;;;6.83;5.30;;;35.70;29.20;;;;;;5075258;28;20276;-56
2023/10/10 14:44:00;;;;;;;8.23;5.67;;;35.70;28.10;;;;;;5074684;28;20620;-56
2023/10/10 14:46:31;;;;;;;10.40;5.43;;;35.40;27.70;;;;;;5074984;28;20220;-57
2023/10/10 14:49:05;;;;;;;9.40;5.47;;;35.00;27.90;;;;;;5075007;28;20236;-57
2023/10/10 14:51:33;;;;;;;12.63;5.00;;;34.70;29.00;;;;;;5075407;28;20257;-56
2023/10/10 14:54:06;;;;;;;7.63;4.87;;;34.60;29.90;;;;;;5074841;28;20197;-56